Time;durP1;ratioP1;P1;durP2;ratioP2;P2;SDS_P1;SDS_P2;PMS_P1;PMS_P2;Temp;Humidity;BMP_temperature;BMP_pressure;BME280_temperature;BME280_humidity;BME280_pressure;Samples;Min_cycle;Max_cycle;Signal;HPM_P1;HPM_P2
2022/01/24 00:04:48;;;;;;;4.10;2.80;;;6.00;99.90;;;;;;10309021;28;20719;-75
2022/01/24 00:09:51;;;;;;;2.87;2.53;;;6.10;99.90;;;;;;10307145;28;20214;-75
2022/01/24 00:30:31;;;;;;;4.27;2.50;;;6.00;99.90;;;;;;10325691;28;20238;-75
2022/01/24 00:35:32;;;;;;;3.70;2.40;;;6.00;99.90;;;;;;10310046;28;20226;-73
2022/01/24 00:40:36;;;;;;;3.53;2.20;;;6.00;99.90;;;;;;10305341;28;20225;-72
2022/01/24 00:46:05;;;;;;;2.73;2.20;;;6.00;99.90;;;;;;10320496;28;20244;-75
2022/01/24 00:56:22;;;;;;;2.47;2.27;;;5.90;99.90;;;;;;10319385;28;20231;-74
2022/01/24 01:01:23;;;;;;;3.30;2.43;;;5.90;99.90;;;;;;10317135;28;20231;-72
2022/01/24 01:06:25;;;;;;;4.87;2.70;;;5.90;99.90;;;;;;10306591;28;20893;-72
2022/01/24 01:22:05;;;;;;;3.83;2.57;;;6.10;99.90;;;;;;10328937;28;20668;-74
2022/01/24 01:27:15;;;;;;;4.20;2.63;;;6.00;99.90;;;;;;10325478;28;20251;-73
2022/01/24 01:37:46;;;;;;;3.97;2.30;;;6.00;99.90;;;;;;10321671;28;20234;-74
2022/01/24 01:58:39;;;;;;;6.50;2.40;;;6.00;99.90;;;;;;10318677;28;20219;-74
2022/01/24 02:03:41;;;;;;;2.50;2.30;;;6.00;99.90;;;;;;10312315;28;20595;-75
2022/01/24 02:08:42;;;;;;;3.00;1.90;;;6.00;99.90;;;;;;10318285;28;20673;-75
2022/01/24 02:13:47;;;;;;;3.30;2.47;;;6.00;99.90;;;;;;10306639;28;20226;-74
2022/01/24 02:19:09;;;;;;;3.37;2.30;;;6.00;99.90;;;;;;10298664;28;20276;-72
2022/01/24 02:24:13;;;;;;;2.07;1.93;;;6.00;99.90;;;;;;10305674;28;20344;-73
2022/01/24 02:29:29;;;;;;;2.47;2.00;;;6.00;99.90;;;;;;10307431;28;20214;-73
2022/01/24 02:34:35;;;;;;;3.50;1.83;;;6.00;99.90;;;;;;10310442;28;20317;-74
2022/01/24 02:39:57;;;;;;;2.17;1.80;;;6.00;99.90;;;;;;10302002;28;20521;-73
2022/01/24 02:50:31;;;;;;;3.33;2.13;;;5.90;99.90;;;;;;10312637;28;20233;-72
2022/01/24 02:55:32;;;;;;;3.77;1.63;;;5.90;99.90;;;;;;10314731;28;20273;-73
2022/01/24 03:00:33;;;;;;;3.13;2.17;;;5.90;99.90;;;;;;10322632;28;20694;-73
2022/01/24 03:05:34;;;;;;;1.77;1.67;;;5.80;99.90;;;;;;10321860;28;20649;-74
2022/01/24 03:10:42;;;;;;;2.30;1.80;;;5.80;99.90;;;;;;10321542;28;20304;-74
2022/01/24 03:15:44;;;;;;;3.43;1.60;;;5.80;99.90;;;;;;10314648;28;20221;-74
2022/01/24 03:20:47;;;;;;;1.63;1.53;;;5.80;99.90;;;;;;10301952;28;20231;-73
2022/01/24 03:25:48;;;;;;;2.40;1.70;;;5.80;99.90;;;;;;10323307;28;20233;-74
2022/01/24 03:30:48;;;;;;;2.30;1.83;;;5.70;99.90;;;;;;10305527;28;20230;-74
2022/01/24 03:35:49;;;;;;;2.47;2.10;;;5.70;99.90;;;;;;10321834;28;20421;-74
2022/01/24 03:40:50;;;;;;;2.20;1.70;;;5.70;99.90;;;;;;10318493;28;20320;-74
2022/01/24 03:51:13;;;;;;;1.70;1.60;;;5.80;99.90;;;;;;10320095;28;20312;-73
2022/01/24 03:56:14;;;;;;;2.60;1.83;;;5.80;99.90;;;;;;10334406;28;20860;-74
2022/01/24 04:01:15;;;;;;;2.63;1.63;;;5.80;99.90;;;;;;10301128;28;20222;-73
2022/01/24 04:06:16;;;;;;;1.60;1.50;;;5.80;99.90;;;;;;10327119;28;20222;-72
2022/01/24 04:11:16;;;;;;;3.43;1.67;;;5.70;99.90;;;;;;10319948;28;20628;-72
2022/01/24 04:16:27;;;;;;;3.87;1.70;;;5.70;99.90;;;;;;10325633;28;20221;-73
2022/01/24 04:21:31;;;;;;;2.87;1.73;;;5.60;99.90;;;;;;10326516;28;20617;-73
2022/01/24 04:26:34;;;;;;;2.97;1.90;;;5.70;99.90;;;;;;10303514;28;20314;-74
2022/01/24 04:31:35;;;;;;;3.10;2.23;;;5.70;99.90;;;;;;10326244;28;20240;-74
2022/01/24 04:36:36;;;;;;;2.90;2.27;;;5.60;99.90;;;;;;10308678;28;20249;-73
2022/01/24 04:41:40;;;;;;;3.03;2.10;;;5.70;99.90;;;;;;10319691;28;20720;-73
2022/01/24 04:56:45;;;;;;;2.30;2.10;;;5.70;99.90;;;;;;10324100;28;20226;-72
2022/01/24 05:01:46;;;;;;;2.50;2.30;;;5.70;99.90;;;;;;10322757;28;20226;-72
2022/01/24 05:06:47;;;;;;;2.70;2.50;;;5.60;99.90;;;;;;10306582;28;20309;-77
2022/01/24 05:27:46;;;;;;;3.60;2.07;;;5.70;99.90;;;;;;10323470;28;20230;-77
2022/01/24 05:32:46;;;;;;;2.60;2.40;;;5.70;99.90;;;;;;10323401;28;20769;-75
2022/01/24 05:37:47;;;;;;;2.80;2.07;;;5.60;99.90;;;;;;10313047;28;20313;-76
2022/01/24 05:42:50;;;;;;;3.00;2.23;;;5.50;99.90;;;;;;10315827;28;20234;-75
2022/01/24 05:47:51;;;;;;;3.83;2.40;;;5.50;99.90;;;;;;10310014;28;20234;-76
2022/01/24 05:52:52;;;;;;;2.20;1.90;;;5.50;99.90;;;;;;10303292;28;20230;-76
2022/01/24 05:57:53;;;;;;;2.40;2.20;;;5.60;99.90;;;;;;10309218;28;20225;-76
2022/01/24 06:02:53;;;;;;;2.10;2.00;;;5.60;99.90;;;;;;10311076;28;20309;-75
2022/01/24 06:07:55;;;;;;;2.40;2.20;;;5.50;99.90;;;;;;10308849;28;20343;-76
2022/01/24 06:12:55;;;;;;;2.97;2.27;;;5.40;99.90;;;;;;10310151;28;20226;-76
2022/01/24 06:17:56;;;;;;;2.47;2.27;;;5.40;99.90;;;;;;10291840;28;20213;-75
2022/01/24 06:22:57;;;;;;;5.00;2.60;;;5.40;99.90;;;;;;10309601;28;20222;-74
2022/01/24 06:27:57;;;;;;;2.50;2.30;;;5.40;99.90;;;;;;10307727;28;20221;-74
2022/01/24 06:32:58;;;;;;;2.90;2.70;;;5.30;99.90;;;;;;10312209;28;20234;-74
2022/01/24 06:37:58;;;;;;;3.60;2.60;;;5.30;99.90;;;;;;10312764;28;20221;-73
2022/01/24 06:42:59;;;;;;;8.40;2.67;;;5.40;99.90;;;;;;10297946;28;20244;-73
2022/01/24 06:47:59;;;;;;;3.20;2.60;;;5.40;99.90;;;;;;10299579;28;20655;-74
2022/01/24 06:53:00;;;;;;;3.13;2.50;;;5.40;99.90;;;;;;10298882;28;20233;-76
2022/01/24 06:58:01;;;;;;;3.73;2.73;;;5.50;99.90;;;;;;10299837;28;20230;-76
2022/01/24 07:03:02;;;;;;;5.70;2.90;;;5.40;99.90;;;;;;10309262;28;20890;-74
2022/01/24 07:08:03;;;;;;;3.00;2.70;;;5.50;99.90;;;;;;10289865;28;20222;-75
2022/01/24 07:13:04;;;;;;;4.90;2.77;;;5.50;99.90;;;;;;10311191;28;20262;-76
2022/01/24 07:23:05;;;;;;;4.97;2.70;;;5.50;99.90;;;;;;10311554;28;20222;-75
2022/01/24 07:28:06;;;;;;;4.40;2.60;;;5.50;99.90;;;;;;10296523;28;20234;-75
2022/01/24 07:33:07;;;;;;;3.97;2.80;;;5.60;99.90;;;;;;10304840;28;20241;-76
2022/01/24 07:38:07;;;;;;;2.70;2.40;;;5.60;99.90;;;;;;10291322;28;20309;-73
2022/01/24 07:48:09;;;;;;;3.70;2.60;;;5.40;99.90;;;;;;10309633;28;20266;-76
2022/01/24 07:53:12;;;;;;;3.73;2.50;;;5.50;99.90;;;;;;10303874;28;20246;-77
2022/01/24 07:58:12;;;;;;;3.73;2.90;;;5.50;99.90;;;;;;10290387;28;20221;-75
2022/01/24 08:03:14;;;;;;;3.90;2.90;;;5.60;99.90;;;;;;10295117;28;20233;-77
2022/01/24 08:08:15;;;;;;;3.63;2.60;;;5.70;99.90;;;;;;10314999;28;20223;-76
2022/01/24 08:13:16;;;;;;;5.20;2.93;;;5.80;99.90;;;;;;10307607;28;20218;-76
2022/01/24 08:18:17;;;;;;;4.13;2.53;;;5.90;99.90;;;;;;10325927;28;20218;-75
2022/01/24 08:23:19;;;;;;;3.90;3.03;;;5.90;99.90;;;;;;10319495;28;20215;-75
2022/01/24 08:28:20;;;;;;;4.07;2.80;;;6.00;99.90;;;;;;10307575;28;20425;-75
2022/01/24 08:33:21;;;;;;;4.07;3.40;;;6.00;99.90;;;;;;10303611;28;20231;-75
2022/01/24 08:38:23;;;;;;;5.77;3.00;;;5.90;99.90;;;;;;10294820;28;20229;-76
2022/01/24 08:43:38;;;;;;;8.60;3.40;;;5.90;99.90;;;;;;10323259;28;20276;-76
2022/01/24 08:48:39;;;;;;;4.40;2.77;;;6.00;99.90;;;;;;10307639;28;20230;-77
2022/01/24 08:53:39;;;;;;;3.87;3.20;;;6.00;99.90;;;;;;10326321;28;20226;-76
2022/01/24 08:58:40;;;;;;;3.70;3.37;;;6.00;99.90;;;;;;10322602;28;20233;-75
2022/01/24 09:03:41;;;;;;;7.00;2.90;;;6.10;99.90;;;;;;10324320;28;20463;-77
2022/01/24 09:08:42;;;;;;;6.43;2.80;;;6.00;99.90;;;;;;10310094;28;20229;-76
2022/01/24 09:13:42;;;;;;;3.47;2.73;;;6.00;99.90;;;;;;10314186;28;20681;-75
2022/01/24 09:18:43;;;;;;;5.63;2.93;;;6.00;99.90;;;;;;10332742;28;20214;-76
2022/01/24 09:23:44;;;;;;;4.00;3.00;;;6.10;99.90;;;;;;10314699;28;20301;-76
2022/01/24 09:28:45;;;;;;;6.20;2.90;;;6.10;99.90;;;;;;10322304;28;20261;-77
2022/01/24 09:33:47;;;;;;;5.03;2.93;;;6.20;99.90;;;;;;10308917;28;20237;-79
2022/01/24 09:38:49;;;;;;;5.10;3.30;;;6.10;99.90;;;;;;10322150;28;20263;-77
2022/01/24 09:43:50;;;;;;;5.67;3.73;;;6.10;99.90;;;;;;10329824;28;20217;-77
2022/01/24 09:48:51;;;;;;;5.33;3.87;;;6.00;99.90;;;;;;10306977;28;20257;-77
2022/01/24 09:53:52;;;;;;;4.63;3.40;;;5.90;99.90;;;;;;10309953;28;20234;-77
2022/01/24 09:58:53;;;;;;;6.90;4.03;;;5.90;99.90;;;;;;10301206;28;20748;-77
2022/01/24 10:04:17;;;;;;;7.73;4.40;;;6.00;99.90;;;;;;10318415;28;20264;-76
2022/01/24 10:09:39;;;;;;;5.87;3.40;;;6.00;99.90;;;;;;10300852;28;20316;-78
2022/01/24 10:20:30;;;;;;;7.60;3.77;;;6.10;99.90;;;;;;10322113;28;20304;-77
2022/01/24 10:25:32;;;;;;;4.43;3.20;;;6.30;99.90;;;;;;10312595;28;20226;-78
2022/01/24 10:30:33;;;;;;;5.83;3.30;;;6.60;99.90;;;;;;10299507;28;20240;-77
2022/01/24 10:35:45;;;;;;;4.10;3.40;;;6.60;99.90;;;;;;10300668;28;20221;-76
2022/01/24 10:40:50;;;;;;;4.43;3.00;;;6.70;99.90;;;;;;10296782;28;20611;-74
2022/01/24 10:45:53;;;;;;;3.77;2.97;;;6.80;99.90;;;;;;10308826;28;20222;-76
2022/01/24 10:51:14;;;;;;;5.47;2.67;;;6.80;99.90;;;;;;10318778;28;20229;-75
2022/01/24 10:56:45;;;;;;;3.97;2.70;;;7.00;99.90;;;;;;10289203;28;20223;-76
2022/01/24 11:01:50;;;;;;;5.90;2.70;;;7.40;99.90;;;;;;10308557;28;20706;-77
2022/01/24 11:07:01;;;;;;;3.67;2.53;;;7.40;99.90;;;;;;10311686;28;20305;-76
2022/01/24 11:12:13;;;;;;;2.77;2.40;;;7.10;99.90;;;;;;10307682;28;20293;-75
2022/01/24 11:17:19;;;;;;;4.53;2.47;;;7.10;99.90;;;;;;10301666;28;20265;-76
2022/01/24 11:22:26;;;;;;;2.93;2.17;;;7.10;99.90;;;;;;10309340;28;20240;-77
2022/01/24 11:27:27;;;;;;;3.50;2.10;;;7.10;99.90;;;;;;10310270;28;20226;-76
2022/01/24 11:32:50;;;;;;;6.13;2.50;;;7.20;99.90;;;;;;10304015;28;20227;-77
2022/01/24 11:37:50;;;;;;;5.30;2.40;;;7.40;99.90;;;;;;10289386;28;20679;-76
2022/01/24 11:42:52;;;;;;;4.60;2.40;;;7.20;99.90;;;;;;10307900;28;20237;-75
2022/01/24 11:48:17;;;;;;;5.67;2.70;;;7.10;99.90;;;;;;10305274;28;20589;-77
2022/01/24 11:53:28;;;;;;;5.13;2.40;;;7.00;99.90;;;;;;10293070;28;20644;-75
2022/01/24 11:58:30;;;;;;;3.03;2.20;;;7.00;99.90;;;;;;10295072;28;20231;-76
2022/01/24 12:03:30;;;;;;;4.53;2.50;;;7.10;99.90;;;;;;10292500;28;20256;-77
2022/01/24 12:08:41;;;;;;;2.47;2.10;;;7.20;99.90;;;;;;10304902;28;20630;-77
2022/01/24 12:13:44;;;;;;;5.40;2.67;;;7.20;99.90;;;;;;10291848;28;20234;-76
2022/01/24 12:18:49;;;;;;;2.83;2.30;;;7.20;99.90;;;;;;10307857;28;20225;-77
2022/01/24 12:24:12;;;;;;;3.67;2.27;;;7.30;99.90;;;;;;10304086;28;20317;-77
2022/01/24 12:29:25;;;;;;;3.53;2.40;;;7.50;99.90;;;;;;10311319;28;20230;-77
2022/01/24 12:34:36;;;;;;;4.80;2.33;;;7.50;99.90;;;;;;10301136;28;20228;-78
2022/01/24 12:40:00;;;;;;;3.63;2.53;;;7.60;99.90;;;;;;10315122;28;20223;-78
2022/01/24 12:50:42;;;;;;;6.77;2.73;;;7.20;99.90;;;;;;10311190;28;20226;-77
2022/01/24 12:55:44;;;;;;;4.17;2.60;;;7.20;99.90;;;;;;10320781;28;20222;-77
2022/01/24 13:00:47;;;;;;;4.33;2.70;;;7.20;99.90;;;;;;10316077;28;20392;-78
2022/01/24 13:05:48;;;;;;;4.10;2.57;;;7.30;99.90;;;;;;10314744;28;20222;-77
2022/01/24 13:10:49;;;;;;;3.77;2.37;;;7.40;99.90;;;;;;10304474;28;20779;-77
2022/01/24 13:21:12;;;;;;;5.77;2.40;;;7.20;99.90;;;;;;10319769;28;20212;-77
2022/01/24 13:26:13;;;;;;;5.07;2.57;;;7.20;99.90;;;;;;10297855;28;20217;-77
2022/01/24 13:31:14;;;;;;;4.67;2.33;;;7.20;99.90;;;;;;10318809;28;20257;-77
2022/01/24 13:36:16;;;;;;;3.00;2.23;;;7.30;99.90;;;;;;10319034;28;20218;-77
2022/01/24 13:41:21;;;;;;;5.50;2.60;;;7.30;99.90;;;;;;10293632;28;20218;-76
2022/01/24 13:46:43;;;;;;;3.83;2.80;;;7.30;99.90;;;;;;10301073;28;20246;-77
2022/01/24 13:51:51;;;;;;;4.63;2.70;;;7.40;99.90;;;;;;10297981;28;20293;-78
2022/01/24 13:56:55;;;;;;;4.80;2.50;;;7.50;99.90;;;;;;10294120;28;20273;-78
2022/01/24 14:02:05;;;;;;;5.63;2.70;;;7.60;99.90;;;;;;10311319;28;20353;-77
2022/01/24 14:07:15;;;;;;;5.27;3.30;;;7.60;99.90;;;;;;10309043;28;20268;-77
2022/01/24 14:12:23;;;;;;;6.13;2.80;;;7.40;99.90;;;;;;10295563;28;20250;-76
2022/01/24 14:18:22;;;;;;;5.47;3.20;;;7.50;99.90;;;;;;10315291;28;20210;-76
2022/01/24 14:22:53;;;;;;;3.50;2.60;;;7.60;99.90;;;;;;10300467;28;20223;-77
2022/01/24 14:27:57;;;;;;;4.87;2.87;;;7.50;99.90;;;;;;10310164;28;20227;-77
2022/01/24 14:33:01;;;;;;;4.50;2.57;;;7.10;99.90;;;;;;10307861;28;20238;-76
2022/01/24 14:38:01;;;;;;;3.10;2.40;;;7.00;99.90;;;;;;10309141;28;20274;-77
2022/01/24 14:48:21;;;;;;;5.13;3.57;;;6.80;99.90;;;;;;10306793;28;20268;-75
2022/01/24 14:53:29;;;;;;;3.97;3.10;;;6.60;99.90;;;;;;10295408;28;20269;-75
2022/01/24 14:58:30;;;;;;;4.90;3.00;;;6.50;99.90;;;;;;10309856;28;20223;-76
2022/01/24 15:03:30;;;;;;;4.43;2.93;;;6.40;99.90;;;;;;10317719;28;20224;-75
2022/01/24 15:08:31;;;;;;;3.90;2.90;;;6.30;99.90;;;;;;10287517;28;20309;-75
2022/01/24 15:13:39;;;;;;;4.40;2.93;;;6.20;99.90;;;;;;10301691;28;20233;-75
2022/01/24 15:24:25;;;;;;;6.67;2.87;;;6.10;99.90;;;;;;10306436;28;20644;-75
2022/01/24 15:29:21;;;;;;;4.23;2.80;;;5.90;99.90;;;;;;10311640;28;20222;-75
2022/01/24 15:34:22;;;;;;;8.37;3.43;;;5.80;99.90;;;;;;10304006;28;20245;-75
2022/01/24 15:39:24;;;;;;;5.87;3.10;;;5.80;99.90;;;;;;10304637;28;20210;-75
2022/01/24 15:44:46;;;;;;;5.60;3.07;;;5.70;99.90;;;;;;10295912;28;20222;-76
2022/01/24 15:49:46;;;;;;;3.60;3.23;;;5.70;99.90;;;;;;10321912;28;20616;-75
2022/01/24 15:54:51;;;;;;;9.10;3.10;;;5.70;99.90;;;;;;10326942;28;20400;-75
2022/01/24 15:59:51;;;;;;;4.13;2.90;;;5.60;99.90;;;;;;10313328;28;20270;-76
2022/01/24 16:04:53;;;;;;;4.33;2.90;;;5.50;99.90;;;;;;10319266;28;20760;-75
2022/01/24 16:09:54;;;;;;;6.27;3.30;;;5.50;99.90;;;;;;10298180;28;20636;-75
2022/01/24 16:14:57;;;;;;;5.17;3.40;;;5.50;99.90;;;;;;10314664;28;20222;-76
2022/01/24 16:20:00;;;;;;;6.43;3.30;;;5.40;99.90;;;;;;10310185;28;20218;-75
2022/01/24 16:25:22;;;;;;;4.40;3.30;;;5.40;99.90;;;;;;10323536;28;20702;-76
2022/01/24 16:30:23;;;;;;;6.17;3.27;;;5.30;99.90;;;;;;10308410;28;20218;-75
2022/01/24 16:35:24;;;;;;;8.93;3.67;;;5.30;99.90;;;;;;10310001;28;20580;-75
2022/01/24 16:40:32;;;;;;;3.87;3.40;;;5.20;99.90;;;;;;10317187;28;20237;-75
2022/01/24 16:50:52;;;;;;;8.27;3.90;;;5.10;99.90;;;;;;10318373;28;20709;-74
2022/01/24 16:55:57;;;;;;;4.77;4.07;;;5.10;99.90;;;;;;10316715;28;20218;-75
2022/01/24 17:00:59;;;;;;;6.17;4.37;;;5.10;99.90;;;;;;10311954;28;20210;-74
2022/01/24 17:06:00;;;;;;;8.40;4.50;;;5.00;99.90;;;;;;10313931;28;20677;-74
2022/01/24 17:11:05;;;;;;;6.53;4.03;;;5.00;99.90;;;;;;10312261;28;20315;-75
2022/01/24 17:16:07;;;;;;;7.70;4.63;;;5.00;99.90;;;;;;10309167;28;20214;-75
2022/01/24 17:21:09;;;;;;;7.37;4.70;;;4.90;99.90;;;;;;10311712;28;20881;-74
2022/01/24 17:26:09;;;;;;;9.33;4.80;;;4.80;99.90;;;;;;10319724;28;20644;-75
2022/01/24 17:31:10;;;;;;;7.90;4.70;;;4.70;99.90;;;;;;10312680;28;20232;-74
2022/01/24 17:36:11;;;;;;;7.63;5.20;;;4.70;99.90;;;;;;10317317;28;20749;-74
2022/01/24 17:41:11;;;;;;;8.90;5.27;;;4.60;99.90;;;;;;10308540;28;20697;-74
2022/01/24 17:46:12;;;;;;;7.60;5.00;;;4.60;99.90;;;;;;10316488;28;20241;-74
2022/01/24 17:51:16;;;;;;;6.47;5.10;;;4.50;99.90;;;;;;10301597;28;20258;-74
2022/01/24 17:56:44;;;;;;;8.43;5.27;;;4.50;99.90;;;;;;10305363;28;20214;-75
2022/01/24 18:01:45;;;;;;;6.73;5.30;;;4.50;99.90;;;;;;10289895;28;20254;-74
2022/01/24 18:06:49;;;;;;;9.67;5.43;;;4.50;99.90;;;;;;10317412;28;20814;-76
2022/01/24 18:11:49;;;;;;;8.37;5.10;;;4.40;99.90;;;;;;10296265;28;20800;-73
2022/01/24 18:16:50;;;;;;;8.97;5.77;;;4.40;99.90;;;;;;10309719;28;20306;-75
2022/01/24 18:21:51;;;;;;;10.87;5.70;;;4.30;99.90;;;;;;10306418;28;20800;-75
2022/01/24 18:26:52;;;;;;;7.80;5.47;;;4.30;99.90;;;;;;10310007;28;20723;-75
2022/01/24 18:31:52;;;;;;;8.60;6.00;;;4.30;99.90;;;;;;10324644;28;20739;-74
2022/01/24 18:36:53;;;;;;;10.77;6.27;;;4.20;99.90;;;;;;10310905;28;20229;-75
2022/01/24 18:41:56;;;;;;;9.80;6.37;;;4.20;99.90;;;;;;10302611;28;20246;-75
2022/01/24 18:46:57;;;;;;;9.67;5.93;;;4.10;99.90;;;;;;10314525;28;20220;-75
2022/01/24 18:51:57;;;;;;;11.20;6.83;;;4.10;99.90;;;;;;10311512;28;20219;-75
2022/01/24 18:57:00;;;;;;;8.90;6.37;;;4.10;99.90;;;;;;10307056;28;20210;-75
2022/01/24 19:02:03;;;;;;;12.27;6.70;;;4.00;99.90;;;;;;10332623;28;20309;-74
2022/01/24 19:07:03;;;;;;;8.93;6.50;;;4.00;99.90;;;;;;10309196;28;20230;-73
2022/01/24 19:12:06;;;;;;;9.37;6.67;;;4.00;99.90;;;;;;10306979;28;20245;-74
2022/01/24 19:17:10;;;;;;;9.07;6.63;;;3.90;99.90;;;;;;10315995;28;20215;-74
2022/01/24 19:27:30;;;;;;;11.77;7.10;;;3.80;99.90;;;;;;10313152;28;20226;-74
2022/01/24 19:32:31;;;;;;;9.43;7.27;;;3.80;99.90;;;;;;10294558;28;20222;-75
2022/01/24 19:37:32;;;;;;;14.70;7.80;;;3.80;99.90;;;;;;10310763;28;20937;-73
2022/01/24 19:42:32;;;;;;;12.17;7.43;;;3.70;99.90;;;;;;10302541;28;20604;-73
2022/01/24 19:47:33;;;;;;;9.17;7.13;;;3.70;99.90;;;;;;10301242;28;20223;-73
2022/01/24 19:52:33;;;;;;;13.23;7.77;;;3.60;99.90;;;;;;10301736;28;20718;-74
2022/01/24 19:57:52;;;;;;;12.87;8.10;;;3.60;99.90;;;;;;10287931;28;20219;-74
2022/01/24 20:02:53;;;;;;;12.30;7.57;;;3.70;99.90;;;;;;10291761;28;20234;-73
2022/01/24 20:07:54;;;;;;;11.97;7.63;;;3.60;99.90;;;;;;10304910;28;20225;-76
2022/01/24 20:12:54;;;;;;;12.80;8.37;;;3.60;99.90;;;;;;10300216;28;20223;-77
2022/01/24 20:17:55;;;;;;;12.50;8.60;;;3.50;99.90;;;;;;10307477;28;20222;-76
2022/01/24 20:22:56;;;;;;;13.07;8.53;;;3.50;99.90;;;;;;10301066;28;20238;-77
2022/01/24 20:27:57;;;;;;;11.27;8.10;;;3.40;99.90;;;;;;10308078;28;20702;-76
2022/01/24 20:32:58;;;;;;;15.43;9.57;;;3.40;99.90;;;;;;10295378;28;20229;-77
2022/01/24 20:37:58;;;;;;;13.87;9.33;;;3.40;99.90;;;;;;10317168;28;20280;-75
2022/01/24 20:43:03;;;;;;;14.47;8.70;;;3.30;99.90;;;;;;10314070;28;20218;-75
2022/01/24 20:48:08;;;;;;;13.23;8.10;;;3.30;99.90;;;;;;10316686;28;20223;-76
2022/01/24 20:53:08;;;;;;;13.47;9.43;;;3.20;99.90;;;;;;10297303;28;20233;-76
2022/01/24 20:58:09;;;;;;;13.13;9.23;;;3.20;99.90;;;;;;10322557;28;20757;-77
2022/01/24 21:03:12;;;;;;;10.93;8.43;;;3.10;99.90;;;;;;10295931;28;20226;-75
2022/01/24 21:08:15;;;;;;;15.40;8.70;;;3.10;99.90;;;;;;10307263;28;20218;-76
2022/01/24 21:13:27;;;;;;;14.67;8.93;;;3.10;99.90;;;;;;10294508;28;20773;-75
2022/01/24 21:18:31;;;;;;;14.87;9.07;;;3.10;99.90;;;;;;10315878;28;20216;-76
2022/01/24 21:23:32;;;;;;;14.60;9.97;;;3.00;99.90;;;;;;10317415;28;20250;-76
2022/01/24 21:28:34;;;;;;;12.97;9.53;;;3.00;99.90;;;;;;10322874;28;20810;-74
2022/01/24 21:33:41;;;;;;;12.47;9.60;;;3.00;99.90;;;;;;10299560;28;20690;-75
2022/01/24 21:38:42;;;;;;;16.87;9.37;;;2.90;99.90;;;;;;10311157;28;20650;-74
2022/01/24 21:43:43;;;;;;;15.47;10.60;;;2.90;99.90;;;;;;10307416;28;20309;-74
2022/01/24 21:48:45;;;;;;;15.47;10.10;;;2.90;99.90;;;;;;10309925;28;20285;-74
2022/01/24 21:53:46;;;;;;;15.53;10.90;;;2.80;99.90;;;;;;10303184;28;20894;-74
2022/01/24 21:58:48;;;;;;;14.63;10.53;;;2.80;99.90;;;;;;10306183;28;20728;-74
2022/01/24 22:03:50;;;;;;;14.90;10.40;;;2.80;99.90;;;;;;10311080;28;20215;-75
2022/01/24 22:08:53;;;;;;;13.47;10.07;;;2.80;99.90;;;;;;10296691;28;20245;-74
2022/01/24 22:13:54;;;;;;;14.73;10.13;;;2.80;99.90;;;;;;10313385;28;20773;-73
2022/01/24 22:18:55;;;;;;;16.13;10.50;;;2.80;99.90;;;;;;10316381;28;20321;-73
2022/01/24 22:23:56;;;;;;;15.10;10.50;;;2.70;99.90;;;;;;10315213;28;20224;-75
2022/01/24 22:29:00;;;;;;;18.50;10.97;;;2.70;99.90;;;;;;10311427;28;20230;-74
2022/01/24 22:34:02;;;;;;;15.30;10.27;;;2.70;99.90;;;;;;10310739;28;20218;-74
2022/01/24 22:39:05;;;;;;;17.20;10.37;;;2.70;99.90;;;;;;10293059;28;20725;-74
2022/01/24 22:44:05;;;;;;;20.67;9.90;;;2.70;99.90;;;;;;10316107;28;20241;-74
2022/01/24 22:49:06;;;;;;;14.57;11.00;;;2.70;99.90;;;;;;10310113;28;20722;-74
2022/01/24 22:54:07;;;;;;;16.93;10.97;;;2.60;99.90;;;;;;10302513;28;20235;-74
2022/01/24 22:59:07;;;;;;;18.03;11.30;;;2.60;99.90;;;;;;10301969;28;20221;-74
2022/01/24 23:04:08;;;;;;;18.00;11.50;;;2.60;99.90;;;;;;10313893;28;20242;-73
2022/01/24 23:09:09;;;;;;;18.47;11.40;;;2.60;99.90;;;;;;10309878;28;20222;-73
2022/01/24 23:19:18;;;;;;;17.50;11.63;;;2.50;99.90;;;;;;10311303;28;20819;-74
2022/01/24 23:24:26;;;;;;;15.23;11.40;;;2.50;99.90;;;;;;10287674;28;20705;-73
2022/01/24 23:29:27;;;;;;;16.67;11.90;;;2.50;99.90;;;;;;10314277;28;20313;-73
2022/01/24 23:39:49;;;;;;;16.93;12.20;;;2.40;99.90;;;;;;10305273;28;20681;-74
2022/01/24 23:44:50;;;;;;;22.43;12.60;;;2.40;99.90;;;;;;10308152;28;20321;-74
2022/01/24 23:49:50;;;;;;;16.43;11.53;;;2.40;99.90;;;;;;10321035;28;20749;-74
2022/01/24 23:54:51;;;;;;;18.17;12.67;;;2.50;99.90;;;;;;10309774;28;20230;-72
